sensor_id;sensor_type;location;lat;lon;timestamp;P1;durP1;ratioP1;P2;durP2;ratioP2
36185;SDS011;22228;53.222;7.446;2022-10-16T00:00:18;4.03;;;1.43;;
36185;SDS011;22228;53.222;7.446;2022-10-16T00:05:39;3.10;;;1.17;;
36185;SDS011;22228;53.222;7.446;2022-10-16T00:08:27;4.27;;;1.50;;
36185;SDS011;22228;53.222;7.446;2022-10-16T00:10:49;6.10;;;1.57;;
36185;SDS011;22228;53.222;7.446;2022-10-16T00:13:13;3.47;;;1.50;;
36185;SDS011;22228;53.222;7.446;2022-10-16T00:15:44;6.20;;;1.50;;
36185;SDS011;22228;53.222;7.446;2022-10-16T00:18:34;5.00;;;1.30;;
36185;SDS011;22228;53.222;7.446;2022-10-16T00:21:01;3.90;;;1.30;;
36185;SDS011;22228;53.222;7.446;2022-10-16T00:23:23;5.10;;;1.53;;
36185;SDS011;22228;53.222;7.446;2022-10-16T00:25:43;3.67;;;1.40;;
36185;SDS011;22228;53.222;7.446;2022-10-16T00:31:24;7.53;;;2.00;;
36185;SDS011;22228;53.222;7.446;2022-10-16T00:33:52;5.30;;;2.00;;
36185;SDS011;22228;53.222;7.446;2022-10-16T00:36:20;5.60;;;1.70;;
36185;SDS011;22228;53.222;7.446;2022-10-16T00:39:08;5.03;;;1.80;;
36185;SDS011;22228;53.222;7.446;2022-10-16T00:41:59;2.73;;;1.33;;
36185;SDS011;22228;53.222;7.446;2022-10-16T00:44:46;2.40;;;1.73;;
36185;SDS011;22228;53.222;7.446;2022-10-16T00:47:22;7.03;;;1.50;;
36185;SDS011;22228;53.222;7.446;2022-10-16T00:50:13;2.93;;;1.53;;
36185;SDS011;22228;53.222;7.446;2022-10-16T00:52:41;6.27;;;1.80;;
36185;SDS011;22228;53.222;7.446;2022-10-16T00:55:07;3.97;;;1.50;;
36185;SDS011;22228;53.222;7.446;2022-10-16T00:57:33;3.90;;;1.87;;
36185;SDS011;22228;53.222;7.446;2022-10-16T00:59:54;9.50;;;1.70;;
36185;SDS011;22228;53.222;7.446;2022-10-16T01:02:38;4.27;;;1.53;;
36185;SDS011;22228;53.222;7.446;2022-10-16T01:05:01;5.10;;;1.73;;
36185;SDS011;22228;53.222;7.446;2022-10-16T01:07:26;2.73;;;1.50;;
36185;SDS011;22228;53.222;7.446;2022-10-16T01:10:03;4.63;;;1.73;;
36185;SDS011;22228;53.222;7.446;2022-10-16T01:12:54;4.30;;;1.47;;
36185;SDS011;22228;53.222;7.446;2022-10-16T01:15:45;2.63;;;1.90;;
36185;SDS011;22228;53.222;7.446;2022-10-16T01:18:14;3.47;;;2.23;;
36185;SDS011;22228;53.222;7.446;2022-10-16T01:20:45;4.37;;;1.80;;
36185;SDS011;22228;53.222;7.446;2022-10-16T01:23:18;2.37;;;1.90;;
36185;SDS011;22228;53.222;7.446;2022-10-16T01:25:52;2.97;;;1.70;;
36185;SDS011;22228;53.222;7.446;2022-10-16T01:28:44;7.20;;;2.20;;
36185;SDS011;22228;53.222;7.446;2022-10-16T01:31:36;3.87;;;2.03;;
36185;SDS011;22228;53.222;7.446;2022-10-16T01:34:28;2.03;;;1.60;;
36185;SDS011;22228;53.222;7.446;2022-10-16T01:36:55;5.13;;;1.77;;
36185;SDS011;22228;53.222;7.446;2022-10-16T01:39:27;2.80;;;1.90;;
36185;SDS011;22228;53.222;7.446;2022-10-16T01:41:52;4.87;;;2.50;;
36185;SDS011;22228;53.222;7.446;2022-10-16T01:44:24;2.93;;;1.70;;
36185;SDS011;22228;53.222;7.446;2022-10-16T01:46:47;5.93;;;2.30;;
36185;SDS011;22228;53.222;7.446;2022-10-16T01:49:11;4.27;;;2.83;;
36185;SDS011;22228;53.222;7.446;2022-10-16T01:51:34;4.40;;;2.40;;
36185;SDS011;22228;53.222;7.446;2022-10-16T01:53:57;5.20;;;2.20;;
36185;SDS011;22228;53.222;7.446;2022-10-16T01:56:44;4.20;;;2.10;;
36185;SDS011;22228;53.222;7.446;2022-10-16T01:59:32;5.23;;;2.60;;
36185;SDS011;22228;53.222;7.446;2022-10-16T02:02:38;4.33;;;2.30;;
36185;SDS011;22228;53.222;7.446;2022-10-16T02:05:02;7.60;;;2.67;;
36185;SDS011;22228;53.222;7.446;2022-10-16T02:07:30;4.57;;;2.47;;
36185;SDS011;22228;53.222;7.446;2022-10-16T02:09:52;5.57;;;2.60;;
36185;SDS011;22228;53.222;7.446;2022-10-16T02:12:15;2.60;;;2.37;;
36185;SDS011;22228;53.222;7.446;2022-10-16T02:14:45;3.43;;;2.20;;
36185;SDS011;22228;53.222;7.446;2022-10-16T02:17:10;4.47;;;2.40;;
36185;SDS011;22228;53.222;7.446;2022-10-16T02:19:38;6.80;;;2.63;;
36185;SDS011;22228;53.222;7.446;2022-10-16T02:22:00;4.27;;;2.10;;
36185;SDS011;22228;53.222;7.446;2022-10-16T02:24:27;6.23;;;2.60;;
36185;SDS011;22228;53.222;7.446;2022-10-16T02:27:19;6.60;;;2.93;;
36185;SDS011;22228;53.222;7.446;2022-10-16T02:29:47;5.93;;;2.47;;
36185;SDS011;22228;53.222;7.446;2022-10-16T02:32:12;4.10;;;2.70;;
36185;SDS011;22228;53.222;7.446;2022-10-16T02:34:59;4.13;;;2.33;;
36185;SDS011;22228;53.222;7.446;2022-10-16T02:37:22;9.43;;;2.57;;
36185;SDS011;22228;53.222;7.446;2022-10-16T02:40:09;7.73;;;2.43;;
36185;SDS011;22228;53.222;7.446;2022-10-16T02:43:03;3.23;;;1.90;;
36185;SDS011;22228;53.222;7.446;2022-10-16T02:45:51;6.93;;;2.20;;
36185;SDS011;22228;53.222;7.446;2022-10-16T02:48:19;4.57;;;2.10;;
36185;SDS011;22228;53.222;7.446;2022-10-16T02:50:39;9.30;;;2.20;;
36185;SDS011;22228;53.222;7.446;2022-10-16T02:53:02;3.37;;;2.20;;
36185;SDS011;22228;53.222;7.446;2022-10-16T02:55:29;5.50;;;2.10;;
36185;SDS011;22228;53.222;7.446;2022-10-16T02:57:51;4.03;;;1.83;;
36185;SDS011;22228;53.222;7.446;2022-10-16T03:00:19;4.27;;;2.00;;
36185;SDS011;22228;53.222;7.446;2022-10-16T03:02:41;3.27;;;2.20;;
36185;SDS011;22228;53.222;7.446;2022-10-16T03:05:02;2.07;;;1.80;;
36185;SDS011;22228;53.222;7.446;2022-10-16T03:07:26;4.33;;;1.90;;
36185;SDS011;22228;53.222;7.446;2022-10-16T03:09:46;4.97;;;1.70;;
36185;SDS011;22228;53.222;7.446;2022-10-16T03:12:13;3.33;;;1.67;;
36185;SDS011;22228;53.222;7.446;2022-10-16T03:15:06;4.23;;;1.83;;
36185;SDS011;22228;53.222;7.446;2022-10-16T03:17:54;2.67;;;1.67;;
36185;SDS011;22228;53.222;7.446;2022-10-16T03:20:40;1.63;;;1.53;;
36185;SDS011;22228;53.222;7.446;2022-10-16T03:25:48;3.37;;;1.60;;
36185;SDS011;22228;53.222;7.446;2022-10-16T03:28:15;2.70;;;1.63;;
36185;SDS011;22228;53.222;7.446;2022-10-16T03:30:36;3.20;;;1.60;;
36185;SDS011;22228;53.222;7.446;2022-10-16T03:33:00;1.50;;;1.40;;
36185;SDS011;22228;53.222;7.446;2022-10-16T03:35:50;2.23;;;1.50;;
36185;SDS011;22228;53.222;7.446;2022-10-16T03:38:14;2.77;;;1.80;;
36185;SDS011;22228;53.222;7.446;2022-10-16T03:40:34;3.30;;;1.50;;
36185;SDS011;22228;53.222;7.446;2022-10-16T03:42:55;3.97;;;1.40;;
36185;SDS011;22228;53.222;7.446;2022-10-16T03:45:17;3.57;;;1.33;;
36185;SDS011;22228;53.222;7.446;2022-10-16T03:47:38;2.70;;;1.33;;
36185;SDS011;22228;53.222;7.446;2022-10-16T03:50:25;1.73;;;1.10;;
36185;SDS011;22228;53.222;7.446;2022-10-16T03:52:46;2.07;;;1.40;;
36185;SDS011;22228;53.222;7.446;2022-10-16T03:55:07;2.87;;;1.50;;
36185;SDS011;22228;53.222;7.446;2022-10-16T03:57:28;2.90;;;1.30;;
36185;SDS011;22228;53.222;7.446;2022-10-16T03:59:54;2.83;;;1.33;;
36185;SDS011;22228;53.222;7.446;2022-10-16T04:02:15;3.27;;;1.33;;
36185;SDS011;22228;53.222;7.446;2022-10-16T04:04:43;2.57;;;1.57;;
36185;SDS011;22228;53.222;7.446;2022-10-16T04:07:08;3.30;;;1.50;;
36185;SDS011;22228;53.222;7.446;2022-10-16T04:09:30;1.83;;;1.27;;
36185;SDS011;22228;53.222;7.446;2022-10-16T04:11:52;5.53;;;1.73;;
36185;SDS011;22228;53.222;7.446;2022-10-16T04:14:37;5.20;;;1.53;;
36185;SDS011;22228;53.222;7.446;2022-10-16T04:17:02;2.40;;;1.33;;
36185;SDS011;22228;53.222;7.446;2022-10-16T04:19:48;3.00;;;1.30;;
36185;SDS011;22228;53.222;7.446;2022-10-16T04:22:14;4.17;;;1.50;;
36185;SDS011;22228;53.222;7.446;2022-10-16T04:24:36;3.07;;;1.60;;
36185;SDS011;22228;53.222;7.446;2022-10-16T04:26:56;1.70;;;1.30;;
36185;SDS011;22228;53.222;7.446;2022-10-16T04:29:24;3.00;;;1.47;;
36185;SDS011;22228;53.222;7.446;2022-10-16T04:31:44;3.30;;;1.50;;
36185;SDS011;22228;53.222;7.446;2022-10-16T04:34:06;3.83;;;1.80;;
36185;SDS011;22228;53.222;7.446;2022-10-16T04:39:14;2.50;;;1.20;;
36185;SDS011;22228;53.222;7.446;2022-10-16T04:41:36;3.73;;;1.50;;
36185;SDS011;22228;53.222;7.446;2022-10-16T04:43:57;1.40;;;1.30;;
36185;SDS011;22228;53.222;7.446;2022-10-16T04:46:23;4.43;;;1.67;;
36185;SDS011;22228;53.222;7.446;2022-10-16T04:48:51;2.13;;;1.27;;
36185;SDS011;22228;53.222;7.446;2022-10-16T04:54:02;1.40;;;1.30;;
36185;SDS011;22228;53.222;7.446;2022-10-16T04:56:49;3.70;;;1.40;;
36185;SDS011;22228;53.222;7.446;2022-10-16T04:59:18;2.50;;;1.20;;
36185;SDS011;22228;53.222;7.446;2022-10-16T05:04:54;2.60;;;1.73;;
36185;SDS011;22228;53.222;7.446;2022-10-16T05:07:14;2.83;;;1.50;;
36185;SDS011;22228;53.222;7.446;2022-10-16T05:09:37;3.67;;;1.50;;
36185;SDS011;22228;53.222;7.446;2022-10-16T05:12:05;2.43;;;1.80;;
36185;SDS011;22228;53.222;7.446;2022-10-16T05:14:25;2.87;;;1.97;;
36185;SDS011;22228;53.222;7.446;2022-10-16T05:16:46;3.83;;;2.07;;
36185;SDS011;22228;53.222;7.446;2022-10-16T05:19:33;2.43;;;2.03;;
36185;SDS011;22228;53.222;7.446;2022-10-16T05:21:54;5.27;;;1.87;;
36185;SDS011;22228;53.222;7.446;2022-10-16T05:24:15;2.17;;;1.80;;
36185;SDS011;22228;53.222;7.446;2022-10-16T05:26:42;2.37;;;1.53;;
36185;SDS011;22228;53.222;7.446;2022-10-16T05:29:04;2.20;;;1.80;;
36185;SDS011;22228;53.222;7.446;2022-10-16T05:31:25;1.60;;;1.50;;
36185;SDS011;22228;53.222;7.446;2022-10-16T05:33:46;2.13;;;1.70;;
36185;SDS011;22228;53.222;7.446;2022-10-16T05:36:33;3.40;;;1.70;;
36185;SDS011;22228;53.222;7.446;2022-10-16T05:38:55;4.67;;;2.17;;
36185;SDS011;22228;53.222;7.446;2022-10-16T05:41:21;2.37;;;2.17;;
36185;SDS011;22228;53.222;7.446;2022-10-16T05:44:08;2.13;;;1.93;;
36185;SDS011;22228;53.222;7.446;2022-10-16T05:49:42;5.00;;;2.20;;
36185;SDS011;22228;53.222;7.446;2022-10-16T05:52:03;4.60;;;2.47;;
36185;SDS011;22228;53.222;7.446;2022-10-16T05:54:55;3.13;;;2.80;;
36185;SDS011;22228;53.222;7.446;2022-10-16T05:57:19;2.70;;;2.30;;
36185;SDS011;22228;53.222;7.446;2022-10-16T06:02:34;3.13;;;2.30;;
36185;SDS011;22228;53.222;7.446;2022-10-16T06:04:58;3.13;;;2.80;;
36185;SDS011;22228;53.222;7.446;2022-10-16T06:10:07;3.93;;;2.77;;
36185;SDS011;22228;53.222;7.446;2022-10-16T06:12:28;3.03;;;2.83;;
36185;SDS011;22228;53.222;7.446;2022-10-16T06:18:09;5.37;;;2.50;;
36185;SDS011;22228;53.222;7.446;2022-10-16T06:20:31;3.40;;;2.67;;
36185;SDS011;22228;53.222;7.446;2022-10-16T06:22:51;3.33;;;2.43;;
36185;SDS011;22228;53.222;7.446;2022-10-16T06:25:39;3.60;;;2.60;;
36185;SDS011;22228;53.222;7.446;2022-10-16T06:31:20;4.30;;;2.67;;
36185;SDS011;22228;53.222;7.446;2022-10-16T06:33:43;3.63;;;2.50;;
36185;SDS011;22228;53.222;7.446;2022-10-16T06:39:36;2.80;;;2.60;;
36185;SDS011;22228;53.222;7.446;2022-10-16T06:44:50;4.10;;;2.73;;
36185;SDS011;22228;53.222;7.446;2022-10-16T06:47:11;2.87;;;2.63;;
36185;SDS011;22228;53.222;7.446;2022-10-16T06:52:22;4.73;;;2.63;;
36185;SDS011;22228;53.222;7.446;2022-10-16T06:55:09;4.57;;;2.80;;
36185;SDS011;22228;53.222;7.446;2022-10-16T06:57:37;3.50;;;2.73;;
36185;SDS011;22228;53.222;7.446;2022-10-16T07:00:24;3.80;;;3.00;;
36185;SDS011;22228;53.222;7.446;2022-10-16T07:02:46;3.63;;;2.57;;
36185;SDS011;22228;53.222;7.446;2022-10-16T07:05:39;2.70;;;2.50;;
36185;SDS011;22228;53.222;7.446;2022-10-16T07:08:25;3.83;;;2.50;;
36185;SDS011;22228;53.222;7.446;2022-10-16T07:10:57;4.80;;;2.80;;
36185;SDS011;22228;53.222;7.446;2022-10-16T07:16:37;5.70;;;2.73;;
36185;SDS011;22228;53.222;7.446;2022-10-16T07:18:59;2.20;;;2.10;;
36185;SDS011;22228;53.222;7.446;2022-10-16T07:21:26;5.20;;;2.23;;
36185;SDS011;22228;53.222;7.446;2022-10-16T07:23:50;2.53;;;2.20;;
36185;SDS011;22228;53.222;7.446;2022-10-16T07:26:11;2.90;;;2.10;;
36185;SDS011;22228;53.222;7.446;2022-10-16T07:28:33;3.33;;;1.90;;
36185;SDS011;22228;53.222;7.446;2022-10-16T07:31:00;3.13;;;1.90;;
36185;SDS011;22228;53.222;7.446;2022-10-16T07:33:22;4.03;;;1.63;;
36185;SDS011;22228;53.222;7.446;2022-10-16T07:35:47;3.50;;;1.60;;
36185;SDS011;22228;53.222;7.446;2022-10-16T07:38:11;4.40;;;1.70;;
36185;SDS011;22228;53.222;7.446;2022-10-16T07:40:32;4.20;;;1.53;;
36185;SDS011;22228;53.222;7.446;2022-10-16T07:42:53;2.40;;;1.40;;
36185;SDS011;22228;53.222;7.446;2022-10-16T07:45:18;5.20;;;1.77;;
36185;SDS011;22228;53.222;7.446;2022-10-16T07:47:38;2.73;;;1.30;;
36185;SDS011;22228;53.222;7.446;2022-10-16T07:50:26;2.90;;;1.47;;
36185;SDS011;22228;53.222;7.446;2022-10-16T07:53:14;1.40;;;1.30;;
36185;SDS011;22228;53.222;7.446;2022-10-16T07:55:36;3.83;;;1.50;;
36185;SDS011;22228;53.222;7.446;2022-10-16T07:57:59;2.20;;;1.30;;
36185;SDS011;22228;53.222;7.446;2022-10-16T08:00:21;2.30;;;1.40;;
36185;SDS011;22228;53.222;7.446;2022-10-16T08:02:47;2.83;;;1.37;;
36185;SDS011;22228;53.222;7.446;2022-10-16T08:05:10;2.97;;;1.20;;
36185;SDS011;22228;53.222;7.446;2022-10-16T08:07:31;5.43;;;3.63;;
36185;SDS011;22228;53.222;7.446;2022-10-16T08:09:53;2.43;;;1.40;;
36185;SDS011;22228;53.222;7.446;2022-10-16T08:12:20;3.50;;;1.47;;
36185;SDS011;22228;53.222;7.446;2022-10-16T08:14:41;1.57;;;1.23;;
36185;SDS011;22228;53.222;7.446;2022-10-16T08:17:09;2.37;;;1.10;;
36185;SDS011;22228;53.222;7.446;2022-10-16T08:19:31;2.47;;;1.30;;
36185;SDS011;22228;53.222;7.446;2022-10-16T08:21:57;3.70;;;1.40;;
36185;SDS011;22228;53.222;7.446;2022-10-16T08:24:18;3.40;;;1.13;;
36185;SDS011;22228;53.222;7.446;2022-10-16T08:27:04;4.30;;;1.30;;
36185;SDS011;22228;53.222;7.446;2022-10-16T08:29:29;4.13;;;1.53;;
36185;SDS011;22228;53.222;7.446;2022-10-16T08:32:15;1.20;;;1.10;;
36185;SDS011;22228;53.222;7.446;2022-10-16T08:37:29;3.10;;;1.23;;
36185;SDS011;22228;53.222;7.446;2022-10-16T08:39:54;3.87;;;1.50;;
36185;SDS011;22228;53.222;7.446;2022-10-16T08:42:29;2.57;;;1.30;;
36185;SDS011;22228;53.222;7.446;2022-10-16T08:45:10;3.27;;;1.60;;
36185;SDS011;22228;53.222;7.446;2022-10-16T08:47:53;3.40;;;1.57;;
36185;SDS011;22228;53.222;7.446;2022-10-16T08:50:38;2.53;;;1.23;;
36185;SDS011;22228;53.222;7.446;2022-10-16T08:53:05;3.30;;;1.40;;
36185;SDS011;22228;53.222;7.446;2022-10-16T08:55:31;3.23;;;1.23;;
36185;SDS011;22228;53.222;7.446;2022-10-16T08:57:58;4.23;;;1.30;;
36185;SDS011;22228;53.222;7.446;2022-10-16T09:00:46;1.90;;;1.10;;
36185;SDS011;22228;53.222;7.446;2022-10-16T09:03:40;3.17;;;1.30;;
36185;SDS011;22228;53.222;7.446;2022-10-16T09:06:24;1.90;;;1.07;;
36185;SDS011;22228;53.222;7.446;2022-10-16T09:12:09;2.63;;;1.00;;
36185;SDS011;22228;53.222;7.446;2022-10-16T09:17:33;3.40;;;1.30;;
36185;SDS011;22228;53.222;7.446;2022-10-16T09:22:53;2.50;;;1.00;;
36185;SDS011;22228;53.222;7.446;2022-10-16T09:25:55;4.37;;;1.30;;
36185;SDS011;22228;53.222;7.446;2022-10-16T09:28:22;2.33;;;0.93;;
36185;SDS011;22228;53.222;7.446;2022-10-16T09:30:49;3.50;;;0.97;;
36185;SDS011;22228;53.222;7.446;2022-10-16T09:33:12;2.63;;;0.90;;
36185;SDS011;22228;53.222;7.446;2022-10-16T09:35:36;2.77;;;0.80;;
36185;SDS011;22228;53.222;7.446;2022-10-16T09:38:26;4.53;;;1.00;;
36185;SDS011;22228;53.222;7.446;2022-10-16T09:43:48;2.10;;;0.80;;
36185;SDS011;22228;53.222;7.446;2022-10-16T09:46:21;3.03;;;0.93;;
36185;SDS011;22228;53.222;7.446;2022-10-16T09:48:55;5.87;;;1.17;;
36185;SDS011;22228;53.222;7.446;2022-10-16T09:51:18;3.23;;;1.00;;
36185;SDS011;22228;53.222;7.446;2022-10-16T09:53:48;3.00;;;0.90;;
36185;SDS011;22228;53.222;7.446;2022-10-16T09:56:22;2.73;;;0.90;;
36185;SDS011;22228;53.222;7.446;2022-10-16T09:58:49;2.73;;;1.00;;
36185;SDS011;22228;53.222;7.446;2022-10-16T10:01:13;3.23;;;1.00;;
36185;SDS011;22228;53.222;7.446;2022-10-16T10:03:37;3.37;;;1.10;;
36185;SDS011;22228;53.222;7.446;2022-10-16T10:06:05;2.40;;;0.90;;
36185;SDS011;22228;53.222;7.446;2022-10-16T10:08:38;4.77;;;1.10;;
36185;SDS011;22228;53.222;7.446;2022-10-16T10:11:05;2.37;;;0.80;;
36185;SDS011;22228;53.222;7.446;2022-10-16T10:13:26;3.07;;;1.10;;
36185;SDS011;22228;53.222;7.446;2022-10-16T10:16:23;4.90;;;1.13;;
36185;SDS011;22228;53.222;7.446;2022-10-16T10:19:17;3.13;;;0.83;;
36185;SDS011;22228;53.222;7.446;2022-10-16T10:21:46;3.17;;;1.03;;
36185;SDS011;22228;53.222;7.446;2022-10-16T10:24:09;5.13;;;1.23;;
36185;SDS011;22228;53.222;7.446;2022-10-16T10:26:39;3.17;;;1.00;;
36185;SDS011;22228;53.222;7.446;2022-10-16T10:29:10;5.17;;;1.20;;
36185;SDS011;22228;53.222;7.446;2022-10-16T10:31:44;6.03;;;1.03;;
36185;SDS011;22228;53.222;7.446;2022-10-16T10:34:18;7.03;;;1.00;;
36185;SDS011;22228;53.222;7.446;2022-10-16T10:36:51;4.77;;;1.00;;
36185;SDS011;22228;53.222;7.446;2022-10-16T10:39:20;4.87;;;1.30;;
36185;SDS011;22228;53.222;7.446;2022-10-16T10:42:16;5.77;;;1.47;;
36185;SDS011;22228;53.222;7.446;2022-10-16T10:44:57;2.77;;;1.30;;
36185;SDS011;22228;53.222;7.446;2022-10-16T10:47:40;3.73;;;1.00;;
36185;SDS011;22228;53.222;7.446;2022-10-16T10:50:38;4.13;;;1.30;;
36185;SDS011;22228;53.222;7.446;2022-10-16T10:53:05;4.53;;;1.17;;
36185;SDS011;22228;53.222;7.446;2022-10-16T10:55:40;5.93;;;1.27;;
36185;SDS011;22228;53.222;7.446;2022-10-16T11:01:09;2.07;;;0.97;;
36185;SDS011;22228;53.222;7.446;2022-10-16T11:04:01;7.27;;;1.27;;
36185;SDS011;22228;53.222;7.446;2022-10-16T11:06:46;5.07;;;1.10;;
36185;SDS011;22228;53.222;7.446;2022-10-16T11:09:13;3.87;;;1.10;;
36185;SDS011;22228;53.222;7.446;2022-10-16T11:11:40;8.67;;;2.63;;
36185;SDS011;22228;53.222;7.446;2022-10-16T11:14:13;7.47;;;1.30;;
36185;SDS011;22228;53.222;7.446;2022-10-16T11:16:38;6.40;;;1.17;;
36185;SDS011;22228;53.222;7.446;2022-10-16T11:19:04;6.03;;;1.20;;
36185;SDS011;22228;53.222;7.446;2022-10-16T11:21:39;5.47;;;1.20;;
36185;SDS011;22228;53.222;7.446;2022-10-16T11:24:13;4.93;;;1.17;;
36185;SDS011;22228;53.222;7.446;2022-10-16T11:26:39;9.27;;;1.23;;
36185;SDS011;22228;53.222;7.446;2022-10-16T11:29:10;4.90;;;1.17;;
36185;SDS011;22228;53.222;7.446;2022-10-16T11:31:36;6.47;;;1.13;;
36185;SDS011;22228;53.222;7.446;2022-10-16T11:34:03;6.17;;;1.13;;
36185;SDS011;22228;53.222;7.446;2022-10-16T11:36:33;3.90;;;1.00;;
36185;SDS011;22228;53.222;7.446;2022-10-16T11:39:00;5.83;;;1.10;;
36185;SDS011;22228;53.222;7.446;2022-10-16T11:41:27;7.57;;;1.40;;
36185;SDS011;22228;53.222;7.446;2022-10-16T11:44:06;5.73;;;1.03;;
36185;SDS011;22228;53.222;7.446;2022-10-16T11:46:48;4.70;;;0.87;;
36185;SDS011;22228;53.222;7.446;2022-10-16T11:52:11;5.10;;;1.10;;
36185;SDS011;22228;53.222;7.446;2022-10-16T11:54:39;7.70;;;1.33;;
36185;SDS011;22228;53.222;7.446;2022-10-16T11:59:45;4.73;;;1.07;;
36185;SDS011;22228;53.222;7.446;2022-10-16T12:02:25;4.70;;;1.23;;
36185;SDS011;22228;53.222;7.446;2022-10-16T12:04:53;7.13;;;1.00;;
36185;SDS011;22228;53.222;7.446;2022-10-16T12:07:23;5.20;;;1.30;;
36185;SDS011;22228;53.222;7.446;2022-10-16T12:09:47;6.63;;;1.00;;
36185;SDS011;22228;53.222;7.446;2022-10-16T12:12:23;7.30;;;1.30;;
36185;SDS011;22228;53.222;7.446;2022-10-16T12:14:46;6.03;;;1.00;;
36185;SDS011;22228;53.222;7.446;2022-10-16T12:17:23;5.60;;;1.53;;
36185;SDS011;22228;53.222;7.446;2022-10-16T12:19:45;3.90;;;1.00;;
36185;SDS011;22228;53.222;7.446;2022-10-16T12:22:17;3.80;;;1.10;;
36185;SDS011;22228;53.222;7.446;2022-10-16T12:24:39;6.33;;;1.10;;
36185;SDS011;22228;53.222;7.446;2022-10-16T12:27:02;11.20;;;6.30;;
36185;SDS011;22228;53.222;7.446;2022-10-16T12:29:28;7.57;;;2.20;;
36185;SDS011;22228;53.222;7.446;2022-10-16T12:31:54;4.10;;;1.10;;
36185;SDS011;22228;53.222;7.446;2022-10-16T12:34:21;3.27;;;0.77;;
36185;SDS011;22228;53.222;7.446;2022-10-16T12:36:47;7.50;;;1.27;;
36185;SDS011;22228;53.222;7.446;2022-10-16T12:39:16;4.13;;;1.23;;
36185;SDS011;22228;53.222;7.446;2022-10-16T12:41:53;3.83;;;1.10;;
36185;SDS011;22228;53.222;7.446;2022-10-16T12:44:22;5.10;;;1.10;;
36185;SDS011;22228;53.222;7.446;2022-10-16T12:46:45;5.20;;;1.17;;
36185;SDS011;22228;53.222;7.446;2022-10-16T12:51:48;3.57;;;1.00;;
36185;SDS011;22228;53.222;7.446;2022-10-16T12:54:12;8.47;;;1.20;;
36185;SDS011;22228;53.222;7.446;2022-10-16T12:56:37;7.77;;;1.17;;
36185;SDS011;22228;53.222;7.446;2022-10-16T12:59:08;6.87;;;1.27;;
36185;SDS011;22228;53.222;7.446;2022-10-16T13:01:38;3.73;;;1.23;;
36185;SDS011;22228;53.222;7.446;2022-10-16T13:04:20;4.20;;;1.00;;
36185;SDS011;22228;53.222;7.446;2022-10-16T13:06:55;5.50;;;1.40;;
36185;SDS011;22228;53.222;7.446;2022-10-16T13:09:27;7.63;;;1.33;;
36185;SDS011;22228;53.222;7.446;2022-10-16T13:12:01;5.03;;;1.10;;
36185;SDS011;22228;53.222;7.446;2022-10-16T13:14:36;3.73;;;1.10;;
36185;SDS011;22228;53.222;7.446;2022-10-16T13:17:15;5.20;;;1.30;;
36185;SDS011;22228;53.222;7.446;2022-10-16T13:19:44;4.93;;;1.20;;
36185;SDS011;22228;53.222;7.446;2022-10-16T13:22:13;5.50;;;1.23;;
36185;SDS011;22228;53.222;7.446;2022-10-16T13:24:48;8.07;;;1.30;;
36185;SDS011;22228;53.222;7.446;2022-10-16T13:27:22;5.37;;;0.97;;
36185;SDS011;22228;53.222;7.446;2022-10-16T13:29:49;4.13;;;1.10;;
36185;SDS011;22228;53.222;7.446;2022-10-16T13:32:14;7.90;;;1.53;;
36185;SDS011;22228;53.222;7.446;2022-10-16T13:34:41;8.33;;;1.37;;
36185;SDS011;22228;53.222;7.446;2022-10-16T13:37:15;6.97;;;1.00;;
36185;SDS011;22228;53.222;7.446;2022-10-16T13:39:44;4.67;;;1.13;;
36185;SDS011;22228;53.222;7.446;2022-10-16T13:42:06;5.60;;;1.30;;
36185;SDS011;22228;53.222;7.446;2022-10-16T13:44:35;4.30;;;1.20;;
36185;SDS011;22228;53.222;7.446;2022-10-16T13:47:00;6.97;;;1.33;;
36185;SDS011;22228;53.222;7.446;2022-10-16T13:49:21;6.77;;;1.20;;
36185;SDS011;22228;53.222;7.446;2022-10-16T13:51:53;7.93;;;1.20;;
36185;SDS011;22228;53.222;7.446;2022-10-16T13:54:14;5.07;;;1.10;;
36185;SDS011;22228;53.222;7.446;2022-10-16T13:56:38;5.63;;;1.03;;
36185;SDS011;22228;53.222;7.446;2022-10-16T13:59:00;3.77;;;1.10;;
36185;SDS011;22228;53.222;7.446;2022-10-16T14:01:23;3.90;;;1.10;;
36185;SDS011;22228;53.222;7.446;2022-10-16T14:03:47;5.43;;;0.97;;
36185;SDS011;22228;53.222;7.446;2022-10-16T14:06:11;6.73;;;1.33;;
36185;SDS011;22228;53.222;7.446;2022-10-16T14:08:36;4.43;;;1.00;;
36185;SDS011;22228;53.222;7.446;2022-10-16T14:11:02;4.30;;;1.00;;
36185;SDS011;22228;53.222;7.446;2022-10-16T14:13:27;4.70;;;1.83;;
36185;SDS011;22228;53.222;7.446;2022-10-16T14:15:50;6.80;;;2.37;;
36185;SDS011;22228;53.222;7.446;2022-10-16T14:18:17;11.47;;;2.30;;
36185;SDS011;22228;53.222;7.446;2022-10-16T14:20:40;9.00;;;1.40;;
36185;SDS011;22228;53.222;7.446;2022-10-16T14:23:01;3.60;;;1.33;;
36185;SDS011;22228;53.222;7.446;2022-10-16T14:25:25;6.23;;;1.30;;
36185;SDS011;22228;53.222;7.446;2022-10-16T14:27:55;6.07;;;0.90;;
36185;SDS011;22228;53.222;7.446;2022-10-16T14:30:18;5.23;;;1.00;;
36185;SDS011;22228;53.222;7.446;2022-10-16T14:32:41;6.20;;;1.50;;
36185;SDS011;22228;53.222;7.446;2022-10-16T14:35:21;6.77;;;1.37;;
36185;SDS011;22228;53.222;7.446;2022-10-16T14:37:43;7.97;;;1.73;;
36185;SDS011;22228;53.222;7.446;2022-10-16T14:40:04;5.10;;;1.07;;
36185;SDS011;22228;53.222;7.446;2022-10-16T14:42:35;5.30;;;1.07;;
36185;SDS011;22228;53.222;7.446;2022-10-16T14:44:55;4.90;;;1.23;;
36185;SDS011;22228;53.222;7.446;2022-10-16T14:47:17;6.67;;;1.20;;
36185;SDS011;22228;53.222;7.446;2022-10-16T14:49:41;5.03;;;1.50;;
36185;SDS011;22228;53.222;7.446;2022-10-16T14:52:01;5.07;;;1.37;;
36185;SDS011;22228;53.222;7.446;2022-10-16T14:54:24;4.53;;;1.20;;
36185;SDS011;22228;53.222;7.446;2022-10-16T14:56:47;4.20;;;1.10;;
36185;SDS011;22228;53.222;7.446;2022-10-16T14:59:13;7.97;;;1.50;;
36185;SDS011;22228;53.222;7.446;2022-10-16T15:01:37;5.57;;;1.63;;
36185;SDS011;22228;53.222;7.446;2022-10-16T15:03:58;4.77;;;1.50;;
36185;SDS011;22228;53.222;7.446;2022-10-16T15:06:18;5.53;;;1.90;;
36185;SDS011;22228;53.222;7.446;2022-10-16T15:08:39;7.23;;;1.50;;
36185;SDS011;22228;53.222;7.446;2022-10-16T15:11:00;6.20;;;1.90;;
36185;SDS011;22228;53.222;7.446;2022-10-16T15:13:20;6.20;;;2.40;;
36185;SDS011;22228;53.222;7.446;2022-10-16T15:15:43;8.40;;;1.53;;
36185;SDS011;22228;53.222;7.446;2022-10-16T15:18:04;3.60;;;1.60;;
36185;SDS011;22228;53.222;7.446;2022-10-16T15:20:25;3.73;;;1.23;;
36185;SDS011;22228;53.222;7.446;2022-10-16T15:22:46;3.63;;;1.57;;
36185;SDS011;22228;53.222;7.446;2022-10-16T15:25:08;4.40;;;1.50;;
36185;SDS011;22228;53.222;7.446;2022-10-16T15:27:36;3.60;;;1.50;;
36185;SDS011;22228;53.222;7.446;2022-10-16T15:29:58;5.87;;;1.23;;
36185;SDS011;22228;53.222;7.446;2022-10-16T15:32:20;3.97;;;0.90;;
36185;SDS011;22228;53.222;7.446;2022-10-16T15:34:40;7.40;;;1.97;;
36185;SDS011;22228;53.222;7.446;2022-10-16T15:37:02;2.90;;;1.60;;
36185;SDS011;22228;53.222;7.446;2022-10-16T15:39:23;7.30;;;1.30;;
36185;SDS011;22228;53.222;7.446;2022-10-16T15:41:44;4.30;;;1.10;;
36185;SDS011;22228;53.222;7.446;2022-10-16T15:44:09;5.70;;;1.07;;
36185;SDS011;22228;53.222;7.446;2022-10-16T15:46:30;7.70;;;1.20;;
36185;SDS011;22228;53.222;7.446;2022-10-16T15:48:55;7.83;;;2.37;;
36185;SDS011;22228;53.222;7.446;2022-10-16T15:51:17;4.17;;;1.47;;
36185;SDS011;22228;53.222;7.446;2022-10-16T15:53:38;7.40;;;2.00;;
36185;SDS011;22228;53.222;7.446;2022-10-16T15:56:00;6.33;;;1.10;;
36185;SDS011;22228;53.222;7.446;2022-10-16T15:58:21;8.30;;;1.50;;
36185;SDS011;22228;53.222;7.446;2022-10-16T16:00:41;8.53;;;1.40;;
36185;SDS011;22228;53.222;7.446;2022-10-16T16:03:02;4.10;;;1.40;;
36185;SDS011;22228;53.222;7.446;2022-10-16T16:05:24;5.30;;;1.30;;
36185;SDS011;22228;53.222;7.446;2022-10-16T16:07:46;11.77;;;6.50;;
36185;SDS011;22228;53.222;7.446;2022-10-16T16:10:07;11.77;;;7.13;;